sensor_id;sensor_type;location;lat;lon;timestamp;P1;durP1;ratioP1;P2;durP2;ratioP2
21299;SDS011;10809;49.476;11.016;2022-09-16T00:00:40;5.60;;;4.43;;
21299;SDS011;10809;49.476;11.016;2022-09-16T00:03:15;6.20;;;4.63;;
21299;SDS011;10809;49.476;11.016;2022-09-16T00:05:47;5.33;;;4.67;;
21299;SDS011;10809;49.476;11.016;2022-09-16T00:08:20;4.93;;;4.43;;
21299;SDS011;10809;49.476;11.016;2022-09-16T00:10:51;5.97;;;4.63;;
21299;SDS011;10809;49.476;11.016;2022-09-16T00:13:21;5.07;;;4.57;;
21299;SDS011;10809;49.476;11.016;2022-09-16T00:15:52;4.50;;;3.97;;
21299;SDS011;10809;49.476;11.016;2022-09-16T00:18:22;6.87;;;3.80;;
21299;SDS011;10809;49.476;11.016;2022-09-16T00:20:54;4.90;;;4.23;;
21299;SDS011;10809;49.476;11.016;2022-09-16T00:23:25;4.77;;;4.17;;
21299;SDS011;10809;49.476;11.016;2022-09-16T00:25:55;8.63;;;4.10;;
21299;SDS011;10809;49.476;11.016;2022-09-16T00:28:25;8.10;;;3.37;;
21299;SDS011;10809;49.476;11.016;2022-09-16T00:30:59;5.43;;;4.07;;
21299;SDS011;10809;49.476;11.016;2022-09-16T00:33:31;4.73;;;3.63;;
21299;SDS011;10809;49.476;11.016;2022-09-16T00:36:05;5.67;;;4.10;;
21299;SDS011;10809;49.476;11.016;2022-09-16T00:38:40;4.60;;;4.07;;
21299;SDS011;10809;49.476;11.016;2022-09-16T00:41:13;3.30;;;2.97;;
21299;SDS011;10809;49.476;11.016;2022-09-16T00:43:47;12.07;;;4.20;;
21299;SDS011;10809;49.476;11.016;2022-09-16T00:49:18;4.93;;;3.60;;
21299;SDS011;10809;49.476;11.016;2022-09-16T00:51:55;3.80;;;3.17;;
21299;SDS011;10809;49.476;11.016;2022-09-16T00:54:28;6.17;;;3.10;;
21299;SDS011;10809;49.476;11.016;2022-09-16T00:57:00;3.40;;;3.10;;
21299;SDS011;10809;49.476;11.016;2022-09-16T00:59:32;6.53;;;3.23;;
21299;SDS011;10809;49.476;11.016;2022-09-16T01:02:10;5.13;;;3.57;;
21299;SDS011;10809;49.476;11.016;2022-09-16T01:04:46;4.93;;;3.33;;
21299;SDS011;10809;49.476;11.016;2022-09-16T01:07:26;2.80;;;2.57;;
21299;SDS011;10809;49.476;11.016;2022-09-16T01:10:00;4.10;;;2.80;;
21299;SDS011;10809;49.476;11.016;2022-09-16T01:12:30;4.37;;;3.33;;
21299;SDS011;10809;49.476;11.016;2022-09-16T01:15:02;3.30;;;2.97;;
21299;SDS011;10809;49.476;11.016;2022-09-16T01:44:24;3.03;;;2.73;;
21299;SDS011;10809;49.476;11.016;2022-09-16T01:47:07;2.60;;;2.40;;
21299;SDS011;10809;49.476;11.016;2022-09-16T01:55:21;3.07;;;2.77;;
21299;SDS011;10809;49.476;11.016;2022-09-16T01:57:56;2.43;;;2.23;;
21299;SDS011;10809;49.476;11.016;2022-09-16T02:00:30;3.20;;;2.40;;
21299;SDS011;10809;49.476;11.016;2022-09-16T02:03:04;2.23;;;2.03;;
21299;SDS011;10809;49.476;11.016;2022-09-16T02:05:39;2.07;;;1.97;;
21299;SDS011;10809;49.476;11.016;2022-09-16T02:08:22;2.60;;;2.40;;
21299;SDS011;10809;49.476;11.016;2022-09-16T02:10:57;2.50;;;2.30;;
21299;SDS011;10809;49.476;11.016;2022-09-16T02:16:21;3.53;;;2.67;;
21299;SDS011;10809;49.476;11.016;2022-09-16T02:18:53;2.53;;;2.33;;
21299;SDS011;10809;49.476;11.016;2022-09-16T02:21:31;2.53;;;2.30;;
21299;SDS011;10809;49.476;11.016;2022-09-16T02:24:07;2.47;;;2.10;;
21299;SDS011;10809;49.476;11.016;2022-09-16T02:26:47;2.67;;;1.97;;
21299;SDS011;10809;49.476;11.016;2022-09-16T02:29:24;2.53;;;2.33;;
21299;SDS011;10809;49.476;11.016;2022-09-16T02:31:57;3.87;;;2.67;;
21299;SDS011;10809;49.476;11.016;2022-09-16T02:34:31;4.20;;;2.40;;
21299;SDS011;10809;49.476;11.016;2022-09-16T02:37:07;2.53;;;2.03;;
21299;SDS011;10809;49.476;11.016;2022-09-16T02:39:43;2.30;;;2.10;;
21299;SDS011;10809;49.476;11.016;2022-09-16T02:42:18;3.43;;;2.50;;
21299;SDS011;10809;49.476;11.016;2022-09-16T02:44:48;2.23;;;2.07;;
21299;SDS011;10809;49.476;11.016;2022-09-16T02:50:08;2.40;;;2.20;;
21299;SDS011;10809;49.476;11.016;2022-09-16T02:53:08;4.23;;;2.40;;
21299;SDS011;10809;49.476;11.016;2022-09-16T02:55:58;3.53;;;2.50;;
21299;SDS011;10809;49.476;11.016;2022-09-16T02:58:32;8.97;;;2.23;;
21299;SDS011;10809;49.476;11.016;2022-09-16T03:01:02;3.20;;;2.20;;
21299;SDS011;10809;49.476;11.016;2022-09-16T03:03:33;3.10;;;2.30;;
21299;SDS011;10809;49.476;11.016;2022-09-16T03:08:43;2.87;;;2.00;;
21299;SDS011;10809;49.476;11.016;2022-09-16T03:11:23;4.03;;;1.90;;
21299;SDS011;10809;49.476;11.016;2022-09-16T03:14:32;2.57;;;1.90;;
21299;SDS011;10809;49.476;11.016;2022-09-16T03:19:58;1.87;;;1.70;;
21299;SDS011;10809;49.476;11.016;2022-09-16T03:22:47;2.83;;;1.57;;
21299;SDS011;10809;49.476;11.016;2022-09-16T03:28:54;2.60;;;2.40;;
21299;SDS011;10809;49.476;11.016;2022-09-16T03:34:19;1.97;;;1.57;;
21299;SDS011;10809;49.476;11.016;2022-09-16T03:36:57;6.40;;;2.80;;
21299;SDS011;10809;49.476;11.016;2022-09-16T03:39:32;3.77;;;1.97;;
21299;SDS011;10809;49.476;11.016;2022-09-16T03:42:04;3.70;;;1.80;;
21299;SDS011;10809;49.476;11.016;2022-09-16T03:44:40;2.17;;;1.97;;
21299;SDS011;10809;49.476;11.016;2022-09-16T03:47:10;2.67;;;1.97;;
21299;SDS011;10809;49.476;11.016;2022-09-16T03:49:41;4.03;;;2.10;;
21299;SDS011;10809;49.476;11.016;2022-09-16T03:52:11;5.03;;;2.53;;
21299;SDS011;10809;49.476;11.016;2022-09-16T03:54:41;3.40;;;1.67;;
21299;SDS011;10809;49.476;11.016;2022-09-16T03:57:12;3.70;;;1.90;;
21299;SDS011;10809;49.476;11.016;2022-09-16T03:59:42;3.07;;;1.73;;
21299;SDS011;10809;49.476;11.016;2022-09-16T04:02:12;2.03;;;1.93;;
21299;SDS011;10809;49.476;11.016;2022-09-16T04:04:43;2.00;;;1.87;;
21299;SDS011;10809;49.476;11.016;2022-09-16T04:07:14;4.90;;;1.97;;
21299;SDS011;10809;49.476;11.016;2022-09-16T04:09:44;2.50;;;2.30;;
21299;SDS011;10809;49.476;11.016;2022-09-16T04:12:15;3.30;;;2.20;;
21299;SDS011;10809;49.476;11.016;2022-09-16T04:14:45;3.00;;;2.30;;
21299;SDS011;10809;49.476;11.016;2022-09-16T04:17:15;1.73;;;1.60;;
21299;SDS011;10809;49.476;11.016;2022-09-16T04:19:46;13.13;;;2.83;;
21299;SDS011;10809;49.476;11.016;2022-09-16T04:22:16;4.43;;;2.63;;
21299;SDS011;10809;49.476;11.016;2022-09-16T04:24:46;3.93;;;2.10;;
21299;SDS011;10809;49.476;11.016;2022-09-16T04:27:17;1.83;;;1.73;;
21299;SDS011;10809;49.476;11.016;2022-09-16T04:29:48;1.93;;;1.80;;
21299;SDS011;10809;49.476;11.016;2022-09-16T04:32:19;3.00;;;2.30;;
21299;SDS011;10809;49.476;11.016;2022-09-16T04:34:49;2.97;;;2.63;;
21299;SDS011;10809;49.476;11.016;2022-09-16T04:37:19;5.67;;;2.17;;
21299;SDS011;10809;49.476;11.016;2022-09-16T04:39:50;2.40;;;2.20;;
21299;SDS011;10809;49.476;11.016;2022-09-16T04:42:20;2.43;;;2.20;;
21299;SDS011;10809;49.476;11.016;2022-09-16T04:44:51;4.90;;;2.40;;
21299;SDS011;10809;49.476;11.016;2022-09-16T04:47:21;2.20;;;1.93;;
21299;SDS011;10809;49.476;11.016;2022-09-16T04:49:51;3.03;;;1.97;;
21299;SDS011;10809;49.476;11.016;2022-09-16T04:52:22;2.37;;;1.97;;
21299;SDS011;10809;49.476;11.016;2022-09-16T04:54:52;2.67;;;2.03;;
21299;SDS011;10809;49.476;11.016;2022-09-16T04:57:23;2.83;;;2.23;;
21299;SDS011;10809;49.476;11.016;2022-09-16T04:59:53;5.83;;;2.13;;
21299;SDS011;10809;49.476;11.016;2022-09-16T05:02:24;2.17;;;1.87;;
21299;SDS011;10809;49.476;11.016;2022-09-16T05:04:54;3.57;;;2.57;;
21299;SDS011;10809;49.476;11.016;2022-09-16T05:07:24;4.83;;;2.20;;
21299;SDS011;10809;49.476;11.016;2022-09-16T05:09:56;1.97;;;1.83;;
21299;SDS011;10809;49.476;11.016;2022-09-16T05:12:27;3.67;;;2.47;;
21299;SDS011;10809;49.476;11.016;2022-09-16T05:14:59;4.33;;;2.80;;
21299;SDS011;10809;49.476;11.016;2022-09-16T05:17:31;2.93;;;2.20;;
21299;SDS011;10809;49.476;11.016;2022-09-16T05:20:01;2.80;;;2.23;;
21299;SDS011;10809;49.476;11.016;2022-09-16T05:22:33;4.37;;;2.00;;
21299;SDS011;10809;49.476;11.016;2022-09-16T05:25:03;6.93;;;2.67;;
21299;SDS011;10809;49.476;11.016;2022-09-16T05:27:34;2.33;;;1.50;;
21299;SDS011;10809;49.476;11.016;2022-09-16T05:30:05;2.80;;;1.97;;
21299;SDS011;10809;49.476;11.016;2022-09-16T05:32:35;3.43;;;1.87;;
21299;SDS011;10809;49.476;11.016;2022-09-16T05:35:06;3.23;;;2.00;;
21299;SDS011;10809;49.476;11.016;2022-09-16T05:37:37;3.93;;;2.00;;
21299;SDS011;10809;49.476;11.016;2022-09-16T05:40:08;3.33;;;1.90;;
21299;SDS011;10809;49.476;11.016;2022-09-16T05:42:38;3.00;;;1.70;;
21299;SDS011;10809;49.476;11.016;2022-09-16T05:45:09;2.20;;;2.00;;
21299;SDS011;10809;49.476;11.016;2022-09-16T05:47:39;3.53;;;1.53;;
21299;SDS011;10809;49.476;11.016;2022-09-16T05:50:10;3.60;;;1.80;;
21299;SDS011;10809;49.476;11.016;2022-09-16T05:52:41;4.63;;;1.73;;
21299;SDS011;10809;49.476;11.016;2022-09-16T05:55:12;2.77;;;2.00;;
21299;SDS011;10809;49.476;11.016;2022-09-16T05:57:42;2.23;;;1.93;;
21299;SDS011;10809;49.476;11.016;2022-09-16T06:00:13;3.37;;;1.70;;
21299;SDS011;10809;49.476;11.016;2022-09-16T06:02:43;3.17;;;1.43;;
21299;SDS011;10809;49.476;11.016;2022-09-16T06:05:14;1.73;;;1.63;;
21299;SDS011;10809;49.476;11.016;2022-09-16T06:07:45;1.50;;;1.40;;
21299;SDS011;10809;49.476;11.016;2022-09-16T06:10:16;2.13;;;1.60;;
21299;SDS011;10809;49.476;11.016;2022-09-16T06:12:47;2.13;;;1.70;;
21299;SDS011;10809;49.476;11.016;2022-09-16T06:15:17;3.23;;;1.87;;
21299;SDS011;10809;49.476;11.016;2022-09-16T06:17:48;1.40;;;1.30;;
21299;SDS011;10809;49.476;11.016;2022-09-16T06:20:18;3.90;;;1.47;;
21299;SDS011;10809;49.476;11.016;2022-09-16T06:22:49;3.63;;;1.60;;
21299;SDS011;10809;49.476;11.016;2022-09-16T06:25:19;2.20;;;1.57;;
21299;SDS011;10809;49.476;11.016;2022-09-16T06:27:50;2.53;;;1.80;;
21299;SDS011;10809;49.476;11.016;2022-09-16T06:30:20;4.43;;;1.27;;
21299;SDS011;10809;49.476;11.016;2022-09-16T06:32:50;1.80;;;1.40;;
21299;SDS011;10809;49.476;11.016;2022-09-16T06:35:21;3.57;;;1.70;;
21299;SDS011;10809;49.476;11.016;2022-09-16T06:37:52;2.90;;;1.50;;
21299;SDS011;10809;49.476;11.016;2022-09-16T06:40:23;5.57;;;1.33;;
21299;SDS011;10809;49.476;11.016;2022-09-16T06:42:54;2.93;;;1.53;;
21299;SDS011;10809;49.476;11.016;2022-09-16T06:45:24;2.30;;;1.47;;
21299;SDS011;10809;49.476;11.016;2022-09-16T06:47:57;1.63;;;1.50;;
21299;SDS011;10809;49.476;11.016;2022-09-16T06:50:28;3.40;;;1.10;;
21299;SDS011;10809;49.476;11.016;2022-09-16T06:52:58;2.50;;;1.10;;
21299;SDS011;10809;49.476;11.016;2022-09-16T06:55:29;3.07;;;0.90;;
21299;SDS011;10809;49.476;11.016;2022-09-16T06:57:59;1.20;;;0.83;;
21299;SDS011;10809;49.476;11.016;2022-09-16T07:00:30;3.07;;;1.30;;
21299;SDS011;10809;49.476;11.016;2022-09-16T07:03:00;5.87;;;0.83;;
21299;SDS011;10809;49.476;11.016;2022-09-16T07:05:31;4.53;;;1.30;;
21299;SDS011;10809;49.476;11.016;2022-09-16T07:08:01;2.30;;;1.40;;
21299;SDS011;10809;49.476;11.016;2022-09-16T07:10:32;2.83;;;1.10;;
21299;SDS011;10809;49.476;11.016;2022-09-16T07:13:02;5.23;;;1.13;;
21299;SDS011;10809;49.476;11.016;2022-09-16T07:15:35;2.67;;;1.00;;
21299;SDS011;10809;49.476;11.016;2022-09-16T07:18:05;0.80;;;0.80;;
21299;SDS011;10809;49.476;11.016;2022-09-16T07:20:35;4.50;;;1.63;;
21299;SDS011;10809;49.476;11.016;2022-09-16T07:23:05;0.93;;;0.90;;
21299;SDS011;10809;49.476;11.016;2022-09-16T07:25:40;4.17;;;0.70;;
21299;SDS011;10809;49.476;11.016;2022-09-16T07:28:11;5.30;;;1.00;;
21299;SDS011;10809;49.476;11.016;2022-09-16T07:30:41;3.13;;;1.33;;
21299;SDS011;10809;49.476;11.016;2022-09-16T07:33:12;1.37;;;0.73;;
21299;SDS011;10809;49.476;11.016;2022-09-16T07:35:42;2.00;;;1.03;;
21299;SDS011;10809;49.476;11.016;2022-09-16T07:38:12;3.70;;;1.20;;
21299;SDS011;10809;49.476;11.016;2022-09-16T07:40:43;0.90;;;0.77;;
21299;SDS011;10809;49.476;11.016;2022-09-16T07:43:13;2.83;;;0.70;;
21299;SDS011;10809;49.476;11.016;2022-09-16T07:45:43;2.53;;;0.70;;
21299;SDS011;10809;49.476;11.016;2022-09-16T07:48:14;1.23;;;0.93;;
21299;SDS011;10809;49.476;11.016;2022-09-16T07:50:52;2.37;;;0.80;;
21299;SDS011;10809;49.476;11.016;2022-09-16T07:53:24;3.63;;;1.00;;
21299;SDS011;10809;49.476;11.016;2022-09-16T07:55:59;1.10;;;0.50;;
21299;SDS011;10809;49.476;11.016;2022-09-16T07:58:34;4.33;;;0.50;;
21299;SDS011;10809;49.476;11.016;2022-09-16T08:01:05;2.43;;;0.70;;
21299;SDS011;10809;49.476;11.016;2022-09-16T08:03:37;1.33;;;0.90;;
21299;SDS011;10809;49.476;11.016;2022-09-16T08:06:09;2.37;;;1.23;;
21299;SDS011;10809;49.476;11.016;2022-09-16T08:08:41;3.30;;;0.60;;
21299;SDS011;10809;49.476;11.016;2022-09-16T08:11:13;2.03;;;0.57;;
21299;SDS011;10809;49.476;11.016;2022-09-16T08:13:44;1.83;;;0.70;;
21299;SDS011;10809;49.476;11.016;2022-09-16T08:16:16;2.90;;;0.70;;
21299;SDS011;10809;49.476;11.016;2022-09-16T08:18:48;4.70;;;1.07;;
21299;SDS011;10809;49.476;11.016;2022-09-16T08:21:21;2.40;;;0.67;;
21299;SDS011;10809;49.476;11.016;2022-09-16T08:23:53;4.93;;;0.77;;
21299;SDS011;10809;49.476;11.016;2022-09-16T08:26:25;2.03;;;0.80;;
21299;SDS011;10809;49.476;11.016;2022-09-16T08:30:17;1.90;;;1.37;;
21299;SDS011;10809;49.476;11.016;2022-09-16T08:32:54;2.27;;;0.60;;
21299;SDS011;10809;49.476;11.016;2022-09-16T08:35:25;3.00;;;1.10;;
21299;SDS011;10809;49.476;11.016;2022-09-16T08:37:56;2.77;;;0.80;;
21299;SDS011;10809;49.476;11.016;2022-09-16T08:40:28;1.17;;;0.70;;
21299;SDS011;10809;49.476;11.016;2022-09-16T08:43:09;4.33;;;0.93;;
21299;SDS011;10809;49.476;11.016;2022-09-16T08:45:51;1.60;;;0.70;;
21299;SDS011;10809;49.476;11.016;2022-09-16T08:48:33;0.97;;;0.33;;
21299;SDS011;10809;49.476;11.016;2022-09-16T08:51:07;2.83;;;0.80;;
21299;SDS011;10809;49.476;11.016;2022-09-16T08:53:48;0.90;;;0.57;;
21299;SDS011;10809;49.476;11.016;2022-09-16T08:56:23;2.50;;;0.37;;
21299;SDS011;10809;49.476;11.016;2022-09-16T08:58:57;5.87;;;0.67;;
21299;SDS011;10809;49.476;11.016;2022-09-16T09:04:05;1.07;;;0.53;;
21299;SDS011;10809;49.476;11.016;2022-09-16T09:09:49;1.33;;;0.73;;
21299;SDS011;10809;49.476;11.016;2022-09-16T09:12:48;1.53;;;0.57;;
21299;SDS011;10809;49.476;11.016;2022-09-16T09:15:29;1.63;;;0.60;;
21299;SDS011;10809;49.476;11.016;2022-09-16T09:21:07;3.93;;;1.00;;
21299;SDS011;10809;49.476;11.016;2022-09-16T09:24:12;1.20;;;0.50;;
21299;SDS011;10809;49.476;11.016;2022-09-16T09:26:50;0.83;;;0.60;;
21299;SDS011;10809;49.476;11.016;2022-09-16T09:35:24;1.73;;;0.80;;
21299;SDS011;10809;49.476;11.016;2022-09-16T09:38:11;2.10;;;0.80;;
21299;SDS011;10809;49.476;11.016;2022-09-16T09:40:57;2.50;;;0.83;;
21299;SDS011;10809;49.476;11.016;2022-09-16T09:43:42;1.97;;;0.60;;
21299;SDS011;10809;49.476;11.016;2022-09-16T09:49:07;2.00;;;0.70;;
21299;SDS011;10809;49.476;11.016;2022-09-16T09:51:48;4.33;;;1.03;;
21299;SDS011;10809;49.476;11.016;2022-09-16T09:57:00;4.03;;;0.60;;
21299;SDS011;10809;49.476;11.016;2022-09-16T10:00:20;1.17;;;0.50;;
21299;SDS011;10809;49.476;11.016;2022-09-16T10:02:43;2.20;;;0.60;;
21299;SDS011;10809;49.476;11.016;2022-09-16T10:05:22;0.87;;;0.63;;
21299;SDS011;10809;49.476;11.016;2022-09-16T10:07:56;2.00;;;0.53;;
21299;SDS011;10809;49.476;11.016;2022-09-16T10:10:30;0.90;;;0.70;;
21299;SDS011;10809;49.476;11.016;2022-09-16T10:13:09;6.80;;;0.70;;
21299;SDS011;10809;49.476;11.016;2022-09-16T10:15:42;1.70;;;0.50;;
21299;SDS011;10809;49.476;11.016;2022-09-16T10:18:34;0.77;;;0.67;;
21299;SDS011;10809;49.476;11.016;2022-09-16T10:23:36;1.17;;;0.93;;
21299;SDS011;10809;49.476;11.016;2022-09-16T10:26:21;2.10;;;0.80;;
21299;SDS011;10809;49.476;11.016;2022-09-16T10:28:57;0.70;;;0.70;;
21299;SDS011;10809;49.476;11.016;2022-09-16T10:31:39;4.35;;;1.10;;
21299;SDS011;10809;49.476;11.016;2022-09-16T10:34:31;1.30;;;1.02;;
21299;SDS011;10809;49.476;11.016;2022-09-16T10:39:37;1.05;;;0.55;;
21299;SDS011;10809;49.476;11.016;2022-09-16T10:42:16;2.42;;;0.98;;
21299;SDS011;10809;49.476;11.016;2022-09-16T10:44:49;1.33;;;0.82;;
21299;SDS011;10809;49.476;11.016;2022-09-16T10:47:22;0.60;;;0.55;;
21299;SDS011;10809;49.476;11.016;2022-09-16T10:49:56;2.05;;;0.63;;
21299;SDS011;10809;49.476;11.016;2022-09-16T10:52:41;1.25;;;0.57;;
21299;SDS011;10809;49.476;11.016;2022-09-16T10:55:32;1.55;;;1.08;;
21299;SDS011;10809;49.476;11.016;2022-09-16T10:58:10;1.10;;;0.70;;
21299;SDS011;10809;49.476;11.016;2022-09-16T11:03:40;5.05;;;0.77;;
21299;SDS011;10809;49.476;11.016;2022-09-16T11:09:04;1.33;;;0.67;;
21299;SDS011;10809;49.476;11.016;2022-09-16T11:11:43;0.60;;;0.60;;
21299;SDS011;10809;49.476;11.016;2022-09-16T11:14:19;1.95;;;0.77;;
21299;SDS011;10809;49.476;11.016;2022-09-16T11:17:20;3.60;;;0.70;;
21299;SDS011;10809;49.476;11.016;2022-09-16T11:34:04;2.97;;;0.73;;
21299;SDS011;10809;49.476;11.016;2022-09-16T11:48:35;1.05;;;0.77;;
21299;SDS011;10809;49.476;11.016;2022-09-16T11:54:40;2.45;;;0.70;;
21299;SDS011;10809;49.476;11.016;2022-09-16T11:57:25;2.65;;;0.90;;
21299;SDS011;10809;49.476;11.016;2022-09-16T12:00:05;1.45;;;0.77;;
21299;SDS011;10809;49.476;11.016;2022-09-16T12:02:53;3.63;;;0.80;;
21299;SDS011;10809;49.476;11.016;2022-09-16T12:05:39;0.85;;;0.55;;
21299;SDS011;10809;49.476;11.016;2022-09-16T12:08:20;1.02;;;0.60;;
21299;SDS011;10809;49.476;11.016;2022-09-16T12:13:54;6.40;;;0.93;;
21299;SDS011;10809;49.476;11.016;2022-09-16T12:17:13;1.77;;;0.65;;
21299;SDS011;10809;49.476;11.016;2022-09-16T12:19:29;1.73;;;1.33;;
21299;SDS011;10809;49.476;11.016;2022-09-16T12:22:05;3.70;;;0.93;;
21299;SDS011;10809;49.476;11.016;2022-09-16T12:24:44;0.70;;;0.70;;
21299;SDS011;10809;49.476;11.016;2022-09-16T12:30:04;1.17;;;0.70;;
21299;SDS011;10809;49.476;11.016;2022-09-16T12:32:54;1.95;;;0.70;;
21299;SDS011;10809;49.476;11.016;2022-09-16T12:35:31;2.63;;;1.38;;
21299;SDS011;10809;49.476;11.016;2022-09-16T12:38:11;3.30;;;0.85;;
21299;SDS011;10809;49.476;11.016;2022-09-16T12:43:30;3.25;;;0.82;;
21299;SDS011;10809;49.476;11.016;2022-09-16T13:00:54;1.50;;;0.85;;
21299;SDS011;10809;49.476;11.016;2022-09-16T13:03:36;1.02;;;0.70;;
21299;SDS011;10809;49.476;11.016;2022-09-16T13:06:45;1.65;;;0.60;;
21299;SDS011;10809;49.476;11.016;2022-09-16T13:09:27;1.83;;;0.90;;
21299;SDS011;10809;49.476;11.016;2022-09-16T13:12:06;11.93;;;2.17;;
21299;SDS011;10809;49.476;11.016;2022-09-16T13:14:59;10.80;;;1.20;;
21299;SDS011;10809;49.476;11.016;2022-09-16T13:17:34;1.35;;;0.60;;
21299;SDS011;10809;49.476;11.016;2022-09-16T13:22:48;2.75;;;1.23;;
21299;SDS011;10809;49.476;11.016;2022-09-16T13:33:43;1.55;;;0.73;;
21299;SDS011;10809;49.476;11.016;2022-09-16T13:38:49;7.40;;;0.70;;
21299;SDS011;10809;49.476;11.016;2022-09-16T13:41:46;0.80;;;0.50;;
21299;SDS011;10809;49.476;11.016;2022-09-16T13:47:05;2.65;;;0.93;;
21299;SDS011;10809;49.476;11.016;2022-09-16T13:49:43;3.67;;;1.02;;
21299;SDS011;10809;49.476;11.016;2022-09-16T13:52:28;0.82;;;0.75;;
21299;SDS011;10809;49.476;11.016;2022-09-16T13:55:02;1.50;;;0.60;;
21299;SDS011;10809;49.476;11.016;2022-09-16T14:00:34;2.13;;;0.75;;
21299;SDS011;10809;49.476;11.016;2022-09-16T14:09:39;1.55;;;0.95;;
21299;SDS011;10809;49.476;11.016;2022-09-16T14:12:23;0.65;;;0.65;;
21299;SDS011;10809;49.476;11.016;2022-09-16T14:15:28;1.55;;;0.82;;
21299;SDS011;10809;49.476;11.016;2022-09-16T14:18:04;1.30;;;0.80;;
21299;SDS011;10809;49.476;11.016;2022-09-16T14:20:36;2.37;;;0.90;;
21299;SDS011;10809;49.476;11.016;2022-09-16T14:23:15;1.92;;;0.85;;
21299;SDS011;10809;49.476;11.016;2022-09-16T14:25:47;2.97;;;1.10;;
21299;SDS011;10809;49.476;11.016;2022-09-16T14:30:54;3.77;;;1.10;;
21299;SDS011;10809;49.476;11.016;2022-09-16T14:33:28;2.33;;;1.20;;
21299;SDS011;10809;49.476;11.016;2022-09-16T14:36:07;1.30;;;0.90;;
21299;SDS011;10809;49.476;11.016;2022-09-16T14:38:49;0.60;;;0.60;;
21299;SDS011;10809;49.476;11.016;2022-09-16T14:44:20;3.03;;;0.85;;
21299;SDS011;10809;49.476;11.016;2022-09-16T14:46:58;1.42;;;0.85;;
21299;SDS011;10809;49.476;11.016;2022-09-16T14:49:34;3.22;;;1.45;;
21299;SDS011;10809;49.476;11.016;2022-09-16T14:52:14;1.10;;;0.88;;
21299;SDS011;10809;49.476;11.016;2022-09-16T14:54:49;2.08;;;1.25;;
21299;SDS011;10809;49.476;11.016;2022-09-16T14:57:21;2.17;;;1.13;;
21299;SDS011;10809;49.476;11.016;2022-09-16T14:59:57;3.88;;;1.23;;
21299;SDS011;10809;49.476;11.016;2022-09-16T15:02:40;3.85;;;1.05;;
21299;SDS011;10809;49.476;11.016;2022-09-16T15:08:06;1.10;;;1.00;;
21299;SDS011;10809;49.476;11.016;2022-09-16T15:10:37;5.30;;;1.25;;
21299;SDS011;10809;49.476;11.016;2022-09-16T15:13:09;2.05;;;0.98;;
21299;SDS011;10809;49.476;11.016;2022-09-16T15:15:44;1.15;;;0.77;;
21299;SDS011;10809;49.476;11.016;2022-09-16T15:18:27;2.80;;;1.25;;
21299;SDS011;10809;49.476;11.016;2022-09-16T15:21:03;2.97;;;0.70;;
21299;SDS011;10809;49.476;11.016;2022-09-16T15:23:37;4.10;;;1.25;;
21299;SDS011;10809;49.476;11.016;2022-09-16T15:26:18;5.93;;;1.17;;
21299;SDS011;10809;49.476;11.016;2022-09-16T15:28:59;3.47;;;2.03;;
21299;SDS011;10809;49.476;11.016;2022-09-16T15:31:35;1.37;;;1.20;;
21299;SDS011;10809;49.476;11.016;2022-09-16T15:36:56;3.33;;;1.00;;
21299;SDS011;10809;49.476;11.016;2022-09-16T15:39:31;5.07;;;1.00;;
21299;SDS011;10809;49.476;11.016;2022-09-16T15:42:09;1.87;;;1.00;;
21299;SDS011;10809;49.476;11.016;2022-09-16T15:44:42;1.87;;;1.13;;
21299;SDS011;10809;49.476;11.016;2022-09-16T15:47:19;4.07;;;0.87;;
21299;SDS011;10809;49.476;11.016;2022-09-16T15:50:13;4.05;;;1.45;;
21299;SDS011;10809;49.476;11.016;2022-09-16T15:53:03;0.95;;;0.95;;
21299;SDS011;10809;49.476;11.016;2022-09-16T15:55:42;6.38;;;1.50;;
21299;SDS011;10809;49.476;11.016;2022-09-16T16:01:12;4.03;;;1.00;;
21299;SDS011;10809;49.476;11.016;2022-09-16T16:04:03;5.35;;;0.88;;
21299;SDS011;10809;49.476;11.016;2022-09-16T16:12:00;0.63;;;0.63;;
21299;SDS011;10809;49.476;11.016;2022-09-16T16:14:37;0.90;;;0.37;;
21299;SDS011;10809;49.476;11.016;2022-09-16T16:17:13;0.97;;;0.50;;
21299;SDS011;10809;49.476;11.016;2022-09-16T16:19:46;0.38;;;0.38;;
21299;SDS011;10809;49.476;11.016;2022-09-16T16:22:18;8.90;;;0.40;;
21299;SDS011;10809;49.476;11.016;2022-09-16T16:24:49;0.73;;;0.30;;
21299;SDS011;10809;49.476;11.016;2022-09-16T16:27:19;2.63;;;0.60;;
21299;SDS011;10809;49.476;11.016;2022-09-16T16:29:50;1.65;;;0.50;;
21299;SDS011;10809;49.476;11.016;2022-09-16T16:32:20;0.30;;;0.30;;
21299;SDS011;10809;49.476;11.016;2022-09-16T16:34:51;5.07;;;0.43;;
21299;SDS011;10809;49.476;11.016;2022-09-16T16:37:27;0.30;;;0.27;;
21299;SDS011;10809;49.476;11.016;2022-09-16T16:39:57;0.50;;;0.50;;
21299;SDS011;10809;49.476;11.016;2022-09-16T16:42:28;0.30;;;0.30;;
21299;SDS011;10809;49.476;11.016;2022-09-16T16:44:58;1.50;;;0.20;;
21299;SDS011;10809;49.476;11.016;2022-09-16T16:47:33;1.10;;;0.33;;
21299;SDS011;10809;49.476;11.016;2022-09-16T16:50:04;0.20;;;0.20;;
21299;SDS011;10809;49.476;11.016;2022-09-16T16:52:34;0.73;;;0.20;;
21299;SDS011;10809;49.476;11.016;2022-09-16T16:55:05;0.63;;;0.20;;
21299;SDS011;10809;49.476;11.016;2022-09-16T16:57:36;0.67;;;0.40;;
21299;SDS011;10809;49.476;11.016;2022-09-16T17:00:06;1.33;;;0.43;;
21299;SDS011;10809;49.476;11.016;2022-09-16T17:02:37;0.80;;;0.30;;
21299;SDS011;10809;49.476;11.016;2022-09-16T17:05:07;0.73;;;0.30;;
21299;SDS011;10809;49.476;11.016;2022-09-16T17:07:38;1.40;;;0.30;;
21299;SDS011;10809;49.476;11.016;2022-09-16T17:10:08;1.20;;;0.33;;
21299;SDS011;10809;49.476;11.016;2022-09-16T17:12:40;0.73;;;0.20;;
21299;SDS011;10809;49.476;11.016;2022-09-16T17:15:11;1.70;;;0.60;;
21299;SDS011;10809;49.476;11.016;2022-09-16T17:17:41;0.83;;;0.40;;
21299;SDS011;10809;49.476;11.016;2022-09-16T17:20:11;0.57;;;0.47;;
21299;SDS011;10809;49.476;11.016;2022-09-16T17:22:42;1.50;;;0.50;;
21299;SDS011;10809;49.476;11.016;2022-09-16T17:25:13;1.00;;;0.50;;
21299;SDS011;10809;49.476;11.016;2022-09-16T17:27:44;0.73;;;0.60;;
21299;SDS011;10809;49.476;11.016;2022-09-16T17:30:14;0.57;;;0.30;;
21299;SDS011;10809;49.476;11.016;2022-09-16T17:32:45;0.77;;;0.53;;
21299;SDS011;10809;49.476;11.016;2022-09-16T17:35:15;1.17;;;0.50;;
21299;SDS011;10809;49.476;11.016;2022-09-16T17:37:46;1.40;;;0.50;;
21299;SDS011;10809;49.476;11.016;2022-09-16T17:40:16;0.50;;;0.30;;
21299;SDS011;10809;49.476;11.016;2022-09-16T17:42:49;0.40;;;0.40;;
21299;SDS011;10809;49.476;11.016;2022-09-16T17:45:21;0.30;;;0.30;;
21299;SDS011;10809;49.476;11.016;2022-09-16T17:47:51;2.93;;;0.40;;
21299;SDS011;10809;49.476;11.016;2022-09-16T17:50:21;0.83;;;0.30;;
21299;SDS011;10809;49.476;11.016;2022-09-16T17:52:52;1.90;;;0.80;;
21299;SDS011;10809;49.476;11.016;2022-09-16T17:55:22;0.80;;;0.57;;
21299;SDS011;10809;49.476;11.016;2022-09-16T17:57:52;1.67;;;0.63;;
21299;SDS011;10809;49.476;11.016;2022-09-16T18:00:23;1.33;;;0.50;;
21299;SDS011;10809;49.476;11.016;2022-09-16T18:02:53;0.87;;;0.60;;
21299;SDS011;10809;49.476;11.016;2022-09-16T18:05:23;1.00;;;0.50;;
21299;SDS011;10809;49.476;11.016;2022-09-16T18:07:54;0.77;;;0.57;;
21299;SDS011;10809;49.476;11.016;2022-09-16T18:10:24;3.50;;;0.40;;
21299;SDS011;10809;49.476;11.016;2022-09-16T18:12:55;0.50;;;0.50;;
21299;SDS011;10809;49.476;11.016;2022-09-16T18:15:27;0.50;;;0.50;;
21299;SDS011;10809;49.476;11.016;2022-09-16T18:17:58;1.27;;;0.60;;
21299;SDS011;10809;49.476;11.016;2022-09-16T18:20:28;2.53;;;0.70;;